createdAt,value
2022-10-22T00:01:28.126Z,99428.94
2022-10-22T00:03:57.342Z,99421.19
2022-10-22T00:06:25.846Z,99430.88
2022-10-22T00:08:55.503Z,99431.81
2022-10-22T00:11:24.201Z,99429.50
2022-10-22T00:13:54.212Z,99426.09
2022-10-22T00:16:22.980Z,99429.06
2022-10-22T00:18:51.507Z,99432.03
2022-10-22T00:21:20.195Z,99429.31
2022-10-22T00:23:48.782Z,99425.69
2022-10-22T00:26:17.460Z,99430.81
2022-10-22T00:28:45.793Z,99434.94
2022-10-22T00:31:16.237Z,99430.13
2022-10-22T00:33:47.080Z,99430.19
2022-10-22T00:36:15.706Z,99429.44
2022-10-22T00:38:45.100Z,99430.06
2022-10-22T00:41:16.977Z,99437.38
2022-10-22T00:44:00.299Z,99431.25
2022-10-22T00:46:31.006Z,99423.16
2022-10-22T00:49:04.436Z,99421.56
2022-10-22T00:51:37.398Z,99424.00
2022-10-22T00:54:09.971Z,99426.06
2022-10-22T00:56:38.598Z,99427.00
2022-10-22T01:01:39.012Z,99427.91
2022-10-22T01:04:07.891Z,99428.13
2022-10-22T01:06:36.311Z,99432.06
2022-10-22T01:09:17.804Z,99434.19
2022-10-22T01:11:57.232Z,99432.66
2022-10-22T01:14:36.252Z,99427.22
2022-10-22T01:17:15.319Z,99421.88
2022-10-22T01:20:02.818Z,99427.06
2022-10-22T01:22:40.045Z,99421.59
2022-10-22T01:25:14.777Z,99430.59
2022-10-22T01:28:02.682Z,99437.19
2022-10-22T01:30:33.481Z,99433.69
2022-10-22T01:33:07.685Z,99431.22
2022-10-22T01:35:43.752Z,99430.63
2022-10-22T01:38:18.324Z,99436.28
2022-10-22T01:40:48.832Z,99441.53
2022-10-22T01:43:17.165Z,99436.78
2022-10-22T01:45:51.016Z,99436.50
2022-10-22T01:48:36.957Z,99441.66
2022-10-22T01:51:29.719Z,99434.06
2022-10-22T01:54:09.145Z,99446.19
2022-10-22T01:56:56.045Z,99453.44
2022-10-22T01:59:36.525Z,99452.44
2022-10-22T02:02:20.089Z,99448.53
2022-10-22T02:04:54.884Z,99444.56
2022-10-22T02:07:31.316Z,99436.13
2022-10-22T02:10:01.991Z,99452.16
2022-10-22T02:12:35.785Z,99439.31
2022-10-22T02:15:06.004Z,99442.81
2022-10-22T02:17:39.044Z,99441.66
2022-10-22T02:20:14.320Z,99444.28
2022-10-22T02:22:43.783Z,99443.00
2022-10-22T02:25:12.934Z,99442.19
2022-10-22T02:27:46.305Z,99442.72
2022-10-22T02:30:18.527Z,99439.81
2022-10-22T02:32:54.173Z,99434.72
2022-10-22T02:35:27.225Z,99445.44
2022-10-22T02:37:58.644Z,99439.19
2022-10-22T02:40:27.971Z,99441.44
2022-10-22T02:42:56.162Z,99446.72
2022-10-22T02:45:25.097Z,99453.72
2022-10-22T02:47:55.271Z,99452.84
2022-10-22T02:50:23.707Z,99449.09
2022-10-22T02:52:52.169Z,99445.09
2022-10-22T02:55:20.832Z,99455.19
2022-10-22T02:57:49.490Z,99452.63
2022-10-22T03:00:19.021Z,99441.97
2022-10-22T03:02:47.575Z,99452.97
2022-10-22T03:05:17.594Z,99451.34
2022-10-22T03:07:46.389Z,99458.75
2022-10-22T03:10:15.233Z,99459.03
2022-10-22T03:12:43.977Z,99461.00
2022-10-22T03:15:12.449Z,99459.16
2022-10-22T03:17:41.208Z,99460.78
2022-10-22T03:20:10.922Z,99464.69
2022-10-22T03:22:42.812Z,99464.03
2022-10-22T03:25:17.852Z,99466.13
2022-10-22T03:27:47.449Z,99461.91
2022-10-22T03:30:16.241Z,99456.34
2022-10-22T03:32:45.238Z,99455.00
2022-10-22T03:35:13.716Z,99460.16
2022-10-22T03:37:43.840Z,99464.00
2022-10-22T03:40:14.236Z,99467.41
2022-10-22T03:42:43.966Z,99467.63
2022-10-22T03:45:13.617Z,99467.25
2022-10-22T03:47:42.510Z,99469.16
2022-10-22T03:50:12.601Z,99476.72
2022-10-22T03:52:43.146Z,99474.47
2022-10-22T03:55:11.889Z,99480.03
2022-10-22T03:57:40.567Z,99479.72
2022-10-22T04:00:11.117Z,99493.25
2022-10-22T04:02:39.797Z,99497.81
2022-10-22T04:05:09.663Z,99505.63
2022-10-22T04:07:38.396Z,99507.97
2022-10-22T04:10:09.730Z,99509.78
2022-10-22T04:12:38.538Z,99509.72
2022-10-22T04:15:08.410Z,99514.38
2022-10-22T04:17:38.696Z,99510.22
2022-10-22T04:20:09.214Z,99505.84
2022-10-22T04:22:38.595Z,99508.75
2022-10-22T04:25:09.896Z,99511.97
2022-10-22T04:27:39.046Z,99515.00
2022-10-22T04:30:10.033Z,99503.97
2022-10-22T04:32:38.352Z,99504.97
2022-10-22T04:35:08.363Z,99512.75
2022-10-22T04:37:36.965Z,99525.75
2022-10-22T04:40:09.817Z,99521.75
2022-10-22T04:42:38.108Z,99519.81
2022-10-22T04:45:07.603Z,99518.31
2022-10-22T04:47:35.991Z,99530.03
2022-10-22T04:50:04.857Z,99531.75
2022-10-22T04:52:33.376Z,99529.72
2022-10-22T04:55:02.321Z,99523.00
2022-10-22T04:57:33.297Z,99525.47
2022-10-22T05:00:01.633Z,99531.84
2022-10-22T05:02:30.070Z,99520.97
2022-10-22T05:04:58.394Z,99529.66
2022-10-22T05:07:27.136Z,99529.84
2022-10-22T05:09:56.003Z,99540.38
2022-10-22T05:12:24.325Z,99531.13
2022-10-22T05:14:54.333Z,99532.75
2022-10-22T05:17:22.895Z,99533.13
2022-10-22T05:19:51.628Z,99534.22
2022-10-22T05:22:19.934Z,99536.03
2022-10-22T05:24:49.351Z,99542.47
2022-10-22T05:29:51.361Z,99539.19
2022-10-22T05:32:21.495Z,99543.63
2022-10-22T05:34:49.887Z,99536.84
2022-10-22T05:37:18.859Z,99538.66
2022-10-22T05:39:47.362Z,99540.22
2022-10-22T05:42:15.833Z,99541.00
2022-10-22T05:44:44.314Z,99544.47
2022-10-22T05:47:12.727Z,99543.56
2022-10-22T05:49:42.780Z,99548.97
2022-10-22T05:52:12.521Z,99554.47
2022-10-22T05:54:41.692Z,99561.97
2022-10-22T05:57:10.181Z,99559.34
2022-10-22T05:59:38.782Z,99550.94
2022-10-22T06:02:07.674Z,99562.72
2022-10-22T06:04:36.230Z,99559.66
2022-10-22T06:07:06.384Z,99566.78
2022-10-22T06:09:40.305Z,99566.41
2022-10-22T06:12:10.994Z,99564.31
2022-10-22T06:14:39.747Z,99569.47
2022-10-22T06:17:08.064Z,99563.94
2022-10-22T06:19:36.834Z,99572.91
2022-10-22T06:22:06.964Z,99576.47
2022-10-22T06:24:35.299Z,99582.91
2022-10-22T06:27:04.165Z,99579.19
2022-10-22T06:29:32.695Z,99575.81
2022-10-22T06:32:01.492Z,99589.13
2022-10-22T06:34:29.865Z,99591.94
2022-10-22T06:36:58.628Z,99588.31
2022-10-22T06:39:28.674Z,99592.84
2022-10-22T06:41:57.289Z,99598.19
2022-10-22T06:44:26.080Z,99602.13
2022-10-22T06:46:54.809Z,99593.31
2022-10-22T06:49:23.694Z,99612.88
2022-10-22T06:51:53.127Z,99609.00
2022-10-22T06:54:21.804Z,99613.44
2022-10-22T06:56:51.745Z,99623.31
2022-10-22T06:59:20.417Z,99630.03
2022-10-22T07:01:48.873Z,99629.56
2022-10-22T07:04:17.497Z,99634.81
2022-10-22T07:06:45.948Z,99636.28
2022-10-22T07:09:14.556Z,99648.59
2022-10-22T07:11:45.169Z,99649.06
2022-10-22T07:14:16.120Z,99645.34
2022-10-22T07:16:45.834Z,99647.50
2022-10-22T07:19:14.910Z,99650.50
2022-10-22T07:21:43.276Z,99652.94
2022-10-22T07:24:12.027Z,99657.50
2022-10-22T07:26:40.890Z,99662.47
2022-10-22T07:29:10.975Z,99676.34
2022-10-22T07:31:40.903Z,99690.31
2022-10-22T07:34:09.846Z,99686.97
2022-10-22T07:36:38.425Z,99691.25
2022-10-22T07:39:06.758Z,99696.84
2022-10-22T07:41:35.435Z,99699.34
2022-10-22T07:44:04.146Z,99705.31
2022-10-22T07:46:32.613Z,99717.38
2022-10-22T07:49:02.821Z,99714.78
2022-10-22T07:51:31.531Z,99720.53
2022-10-22T07:53:59.805Z,99716.09
2022-10-22T07:56:28.583Z,99726.50
2022-10-22T07:58:57.139Z,99724.56
2022-10-22T08:01:25.392Z,99725.91
2022-10-22T08:03:54.050Z,99739.16
2022-10-22T08:06:23.788Z,99745.16
2022-10-22T08:08:52.651Z,99745.50
2022-10-22T08:11:21.426Z,99757.31
2022-10-22T08:13:50.132Z,99750.09
2022-10-22T08:16:18.994Z,99746.63
2022-10-22T08:18:47.508Z,99760.50
2022-10-22T08:21:17.142Z,99760.31
2022-10-22T08:23:47.467Z,99759.22
2022-10-22T08:26:16.062Z,99756.31
2022-10-22T08:28:46.866Z,99763.75
2022-10-22T08:31:15.467Z,99770.28
2022-10-22T08:33:43.966Z,99765.38
2022-10-22T08:36:12.683Z,99769.72
2022-10-22T08:38:41.187Z,99771.38
2022-10-22T08:41:15.439Z,99779.41
2022-10-22T08:44:18.266Z,99783.47
2022-10-22T08:47:26.494Z,99791.78
2022-10-22T08:49:57.063Z,99802.72
2022-10-22T08:52:25.829Z,99795.91
2022-10-22T08:54:58.202Z,99802.13
2022-10-22T08:57:47.615Z,99801.00
2022-10-22T09:00:24.322Z,99808.78
2022-10-22T09:03:09.233Z,99816.56
2022-10-22T09:05:56.057Z,99808.56
2022-10-22T09:08:24.816Z,99810.72
2022-10-22T09:10:59.689Z,99819.13
2022-10-22T09:13:30.044Z,99823.53
2022-10-22T09:16:02.975Z,99823.28
2022-10-22T09:18:41.501Z,99823.03
2022-10-22T09:21:24.588Z,99826.09
2022-10-22T09:24:05.307Z,99832.94
2022-10-22T09:26:38.725Z,99825.75
2022-10-22T09:29:17.853Z,99826.66
2022-10-22T09:31:46.561Z,99836.31
2022-10-22T09:34:17.035Z,99821.75
2022-10-22T09:36:45.553Z,99833.19
2022-10-22T09:39:26.091Z,99829.28
2022-10-22T09:41:54.603Z,99822.81
2022-10-22T09:44:24.286Z,99837.09
2022-10-22T09:46:52.550Z,99833.56
2022-10-22T09:49:24.960Z,99837.13
2022-10-22T09:51:57.020Z,99855.25
2022-10-22T09:54:28.664Z,99848.97
2022-10-22T09:57:00.124Z,99847.78
2022-10-22T09:59:32.542Z,99847.84
2022-10-22T10:02:20.185Z,99851.50
2022-10-22T10:04:59.632Z,99869.78
2022-10-22T10:07:32.661Z,99867.97
2022-10-22T10:10:01.595Z,99870.03
2022-10-22T10:12:40.193Z,99869.53
2022-10-22T10:15:21.505Z,99873.13
2022-10-22T10:18:02.673Z,99874.19
2022-10-22T10:20:40.933Z,99880.50
2022-10-22T10:23:16.116Z,99884.94
2022-10-22T10:25:55.705Z,99895.59
2022-10-22T10:28:42.263Z,99885.47
2022-10-22T10:31:35.981Z,99883.16
2022-10-22T10:34:20.238Z,99889.28
2022-10-22T10:37:02.908Z,99899.28
2022-10-22T10:39:43.785Z,99898.09
2022-10-22T10:42:25.796Z,99900.84
2022-10-22T10:45:07.170Z,99898.28
2022-10-22T10:48:13.645Z,99909.03
2022-10-22T10:50:55.555Z,99910.19
2022-10-22T10:53:35.089Z,99920.28
2022-10-22T10:56:17.839Z,99910.66
2022-10-22T10:58:50.961Z,99916.19
2022-10-22T11:01:30.836Z,99925.00
2022-10-22T11:04:42.951Z,99928.00
2022-10-22T11:07:30.298Z,99925.44
2022-10-22T11:10:12.068Z,99920.19
2022-10-22T11:12:48.781Z,99921.72
2022-10-22T11:15:28.510Z,99918.25
2022-10-22T11:18:04.432Z,99919.88
2022-10-22T11:20:48.159Z,99925.53
2022-10-22T11:23:24.767Z,99917.25
2022-10-22T11:25:53.407Z,99924.19
2022-10-22T11:28:28.414Z,99922.38
2022-10-22T11:31:04.298Z,99918.88
2022-10-22T11:33:43.831Z,99918.16
2022-10-22T11:36:14.647Z,99917.22
2022-10-22T11:38:43.557Z,99914.50
2022-10-22T11:41:15.535Z,99910.19
2022-10-22T11:44:10.823Z,99911.25
2022-10-22T11:46:48.128Z,99906.13
2022-10-22T11:49:27.390Z,99897.03
2022-10-22T11:52:26.861Z,99902.56
2022-10-22T11:54:58.902Z,99900.84
2022-10-22T11:57:37.517Z,99892.50
2022-10-22T12:00:41.155Z,99894.78
2022-10-22T12:03:20.394Z,99885.69
2022-10-22T12:06:03.528Z,99881.34
2022-10-22T12:08:35.476Z,99885.00
2022-10-22T12:11:17.984Z,99880.66
2022-10-22T12:14:16.189Z,99872.94
2022-10-22T12:16:56.650Z,99871.59
2022-10-22T12:19:33.540Z,99862.97
2022-10-22T12:22:14.987Z,99866.47
2022-10-22T12:24:48.057Z,99868.91
2022-10-22T12:27:23.099Z,99866.72
2022-10-22T12:29:57.037Z,99861.81
2022-10-22T12:32:34.441Z,99864.19
2022-10-22T12:35:09.236Z,99857.25
2022-10-22T12:37:38.762Z,99859.41
2022-10-22T12:40:22.021Z,99867.19
2022-10-22T12:42:53.613Z,99865.25
2022-10-22T12:45:23.287Z,99863.06
2022-10-22T12:47:57.689Z,99867.97
2022-10-22T12:50:37.468Z,99864.69
2022-10-22T12:53:07.828Z,99858.50
2022-10-22T12:55:38.926Z,99861.31
2022-10-22T12:58:08.108Z,99859.72
2022-10-22T13:00:37.427Z,99859.78
2022-10-22T13:03:08.845Z,99853.91
2022-10-22T13:05:39.886Z,99844.03
2022-10-22T13:08:12.566Z,99847.41
2022-10-22T13:10:50.700Z,99856.22
2022-10-22T13:13:34.370Z,99860.53
2022-10-22T13:16:24.071Z,99860.72
2022-10-22T13:18:54.794Z,99855.84
2022-10-22T13:21:30.380Z,99856.88
2022-10-22T13:24:02.515Z,99856.25
2022-10-22T13:26:38.621Z,99847.66
2022-10-22T13:29:14.642Z,99843.41
2022-10-22T13:31:47.950Z,99850.13
2022-10-22T13:34:20.859Z,99847.31
2022-10-22T13:36:49.720Z,99858.03
2022-10-22T13:39:19.978Z,99849.53
2022-10-22T13:41:51.254Z,99850.84
2022-10-22T13:44:19.868Z,99851.47
2022-10-22T13:46:49.588Z,99851.94
2022-10-22T13:49:23.017Z,99850.94
2022-10-22T13:51:52.921Z,99858.84
2022-10-22T13:54:25.198Z,99857.59
2022-10-22T13:56:55.464Z,99843.94
2022-10-22T13:59:24.209Z,99854.47
2022-10-22T14:01:53.167Z,99852.53
2022-10-22T14:04:21.950Z,99845.69
2022-10-22T14:06:50.523Z,99850.13
2022-10-22T14:09:23.645Z,99849.94
2022-10-22T14:11:51.968Z,99852.38
2022-10-22T14:14:22.435Z,99846.69
2022-10-22T14:16:51.007Z,99850.91
2022-10-22T14:19:20.113Z,99855.44
2022-10-22T14:21:49.333Z,99861.69
2022-10-22T14:24:17.982Z,99848.72
2022-10-22T14:26:46.999Z,99850.56
2022-10-22T14:29:15.743Z,99854.38
2022-10-22T14:31:45.887Z,99859.41
2022-10-22T14:34:16.862Z,99859.69
2022-10-22T14:36:45.583Z,99861.81
2022-10-22T14:39:14.482Z,99859.81
2022-10-22T14:41:44.048Z,99858.19
2022-10-22T14:44:14.853Z,99855.38
2022-10-22T14:46:46.894Z,99850.72
2022-10-22T14:49:15.880Z,99859.03
2022-10-22T14:51:44.403Z,99848.50
2022-10-22T14:54:13.111Z,99856.47
2022-10-22T14:56:41.643Z,99859.53
2022-10-22T14:59:10.255Z,99860.72
2022-10-22T15:01:40.588Z,99862.97
2022-10-22T15:04:10.480Z,99870.31
2022-10-22T15:06:39.161Z,99862.28
2022-10-22T15:09:07.563Z,99867.38
2022-10-22T15:11:36.135Z,99879.94
2022-10-22T15:14:04.724Z,99872.41
2022-10-22T15:16:33.543Z,99870.44
2022-10-22T15:19:01.968Z,99865.91
2022-10-22T15:21:32.176Z,99857.81
2022-10-22T15:24:02.111Z,99873.84
2022-10-22T15:26:30.553Z,99871.41
2022-10-22T15:28:59.369Z,99871.44
2022-10-22T15:31:45.680Z,99883.66
2022-10-22T15:34:14.566Z,99877.78
2022-10-22T15:36:44.503Z,99879.66
2022-10-22T15:39:12.934Z,99880.06
2022-10-22T15:41:41.929Z,99876.84
2022-10-22T15:44:15.589Z,99866.03
2022-10-22T15:46:44.165Z,99870.91
2022-10-22T15:49:13.732Z,99869.09
2022-10-22T15:51:44.134Z,99870.28
2022-10-22T15:54:16.954Z,99870.53
2022-10-22T15:56:45.852Z,99875.78
2022-10-22T15:59:17.296Z,99870.50
2022-10-22T16:01:46.618Z,99869.28
2022-10-22T16:04:14.973Z,99875.00
2022-10-22T16:06:47.716Z,99870.69
2022-10-22T16:09:19.981Z,99877.44
2022-10-22T16:11:48.618Z,99878.47
2022-10-22T16:14:19.879Z,99879.06
2022-10-22T16:16:53.202Z,99883.56
2022-10-22T16:19:24.727Z,99878.25
2022-10-22T16:21:56.768Z,99878.84
2022-10-22T16:24:25.165Z,99888.22
2022-10-22T16:26:54.154Z,99893.50
2022-10-22T16:29:22.659Z,99890.66
2022-10-22T16:31:51.311Z,99891.22
2022-10-22T16:34:19.792Z,99898.72
2022-10-22T16:36:48.925Z,99895.41
2022-10-22T16:39:18.729Z,99900.41
2022-10-22T16:41:47.044Z,99902.25
2022-10-22T16:44:15.664Z,99900.78
2022-10-22T16:46:44.199Z,99908.72
2022-10-22T16:49:14.419Z,99909.09
2022-10-22T16:51:43.157Z,99908.91
2022-10-22T16:54:15.675Z,99919.78
2022-10-22T16:56:45.916Z,99921.41
2022-10-22T16:59:14.295Z,99918.53
2022-10-22T17:01:42.754Z,99922.34
2022-10-22T17:04:12.232Z,99918.31
2022-10-22T17:06:40.650Z,99925.56
2022-10-22T17:09:09.077Z,99928.88
2022-10-22T17:11:40.168Z,99929.69
2022-10-22T17:14:13.121Z,99937.59
2022-10-22T17:16:41.547Z,99945.09
2022-10-22T17:19:13.960Z,99947.34
2022-10-22T17:21:42.710Z,99956.69
2022-10-22T17:24:11.722Z,99952.91
2022-10-22T17:26:40.065Z,99958.28
2022-10-22T17:29:08.759Z,99953.00
2022-10-22T17:31:39.790Z,99957.63
2022-10-22T17:34:12.164Z,99955.63
2022-10-22T17:36:40.501Z,99945.94
2022-10-22T17:39:12.919Z,99954.75
2022-10-22T17:41:41.157Z,99956.38
2022-10-22T17:44:10.688Z,99960.31
2022-10-22T17:46:40.813Z,99946.19
2022-10-22T17:49:18.963Z,99949.09
2022-10-22T17:51:47.966Z,99949.59
2022-10-22T17:54:16.462Z,99955.91
2022-10-22T17:56:44.872Z,99949.19
2022-10-22T17:59:17.081Z,99943.06
2022-10-22T18:01:47.915Z,99944.25
2022-10-22T18:04:19.345Z,99936.72
2022-10-22T18:06:48.997Z,99935.44
2022-10-22T18:09:19.524Z,99932.91
2022-10-22T18:11:49.266Z,99940.47
2022-10-22T18:14:19.733Z,99951.09
2022-10-22T18:16:50.705Z,99950.38
2022-10-22T18:19:22.425Z,99961.78
2022-10-22T18:21:51.689Z,99962.63
2022-10-22T18:24:20.029Z,99962.09
2022-10-22T18:26:48.504Z,99964.84
2022-10-22T18:29:19.736Z,99962.72
2022-10-22T18:31:50.281Z,99959.06
2022-10-22T18:34:21.569Z,99960.09
2022-10-22T18:36:52.419Z,99959.97
2022-10-22T18:39:20.817Z,99951.25
2022-10-22T18:41:49.497Z,99946.34
2022-10-22T18:44:18.749Z,99946.91
2022-10-22T18:46:58.247Z,99937.19
2022-10-22T18:49:27.127Z,99942.84
2022-10-22T18:51:57.973Z,99953.84
2022-10-22T18:54:26.314Z,99941.81
2022-10-22T18:57:00.624Z,99936.03
2022-10-22T18:59:30.891Z,99927.41
2022-10-22T19:02:00.575Z,99929.91
2022-10-22T19:04:33.545Z,99937.97
2022-10-22T19:07:02.710Z,99946.28
2022-10-22T19:09:31.344Z,99952.06
2022-10-22T19:12:00.424Z,99951.72
2022-10-22T19:14:28.954Z,99948.66
2022-10-22T19:16:57.183Z,99950.31
2022-10-22T19:19:26.992Z,99941.88
2022-10-22T19:21:59.421Z,99941.13
2022-10-22T19:24:27.959Z,99935.59
2022-10-22T19:26:56.330Z,99940.72
2022-10-22T19:29:25.520Z,99942.09
2022-10-22T19:31:53.989Z,99944.22
2022-10-22T19:34:22.687Z,99939.50
2022-10-22T19:36:52.676Z,99935.16
2022-10-22T19:39:21.702Z,99940.59
2022-10-22T19:41:50.042Z,99932.31
2022-10-22T19:44:19.812Z,99935.22
2022-10-22T19:46:48.195Z,99947.97
2022-10-22T19:49:20.367Z,99947.13
2022-10-22T19:51:52.217Z,99933.53
2022-10-22T19:54:20.991Z,99943.88
2022-10-22T19:56:50.874Z,99940.31
2022-10-22T19:59:26.224Z,99934.53
2022-10-22T20:01:57.666Z,99941.09
2022-10-22T20:04:27.992Z,99931.66
2022-10-22T20:06:58.062Z,99934.63
2022-10-22T20:09:26.719Z,99928.56
2022-10-22T20:11:55.320Z,99933.28
2022-10-22T20:14:23.727Z,99936.91
2022-10-22T20:16:52.292Z,99920.84
2022-10-22T20:19:20.569Z,99919.59
2022-10-22T20:21:50.548Z,99918.03
2022-10-22T20:24:20.367Z,99926.13
2022-10-22T20:26:49.238Z,99926.91
2022-10-22T20:29:19.909Z,99930.59
2022-10-22T20:31:50.208Z,99934.56
2022-10-22T20:34:18.630Z,99935.03
2022-10-22T20:36:47.886Z,99937.19
2022-10-22T20:39:17.416Z,99926.66
2022-10-22T20:41:47.259Z,99945.88
2022-10-22T20:44:18.079Z,99939.47
2022-10-22T20:46:47.255Z,99942.94
2022-10-22T20:49:18.429Z,99947.00
2022-10-22T20:51:47.288Z,99938.75
2022-10-22T20:54:16.609Z,99941.34
2022-10-22T20:56:48.015Z,99935.50
2022-10-22T20:59:17.328Z,99940.72
2022-10-22T21:01:49.804Z,99940.75
2022-10-22T21:04:19.629Z,99954.56
2022-10-22T21:06:50.146Z,99948.84
2022-10-22T21:09:18.809Z,99947.22
2022-10-22T21:11:49.037Z,99950.66
2022-10-22T21:14:20.352Z,99951.28
2022-10-22T21:16:52.322Z,99943.78
2022-10-22T21:19:22.484Z,99941.97
2022-10-22T21:21:51.187Z,99943.09
2022-10-22T21:24:19.889Z,99943.44
2022-10-22T21:26:50.162Z,99949.84
2022-10-22T21:29:20.711Z,99953.59
2022-10-22T21:31:49.161Z,99955.22
2022-10-22T21:34:18.041Z,99945.25
2022-10-22T21:39:15.314Z,99941.91
2022-10-22T21:41:43.787Z,99937.22
2022-10-22T21:44:14.870Z,99933.63
2022-10-22T21:46:43.289Z,99935.78
2022-10-22T21:49:11.764Z,99932.00
2022-10-22T21:51:40.618Z,99931.19
2022-10-22T21:54:08.838Z,99930.88
2022-10-22T21:56:38.207Z,99928.72
2022-10-22T21:59:08.719Z,99932.00
2022-10-22T22:01:38.762Z,99928.06
2022-10-22T22:04:07.741Z,99938.06
2022-10-22T22:06:36.562Z,99929.72
2022-10-22T22:09:06.754Z,99933.16
2022-10-22T22:11:35.133Z,99931.81
2022-10-22T22:14:03.395Z,99932.13
2022-10-22T22:16:34.428Z,99934.13
2022-10-22T22:19:07.311Z,99930.03
2022-10-22T22:21:36.905Z,99935.25
2022-10-22T22:24:06.909Z,99935.94
2022-10-22T22:26:35.802Z,99929.38
2022-10-22T22:29:04.678Z,99933.94
2022-10-22T22:31:37.324Z,99932.63
2022-10-22T22:34:08.534Z,99930.03
2022-10-22T22:36:40.278Z,99926.75
2022-10-22T22:39:14.280Z,99930.06
2022-10-22T22:41:44.566Z,99924.31
2022-10-22T22:44:13.659Z,99917.44
2022-10-22T22:46:42.440Z,99913.50
2022-10-22T22:49:13.504Z,99911.53
2022-10-22T22:51:43.389Z,99906.78
2022-10-22T22:54:12.392Z,99911.53
2022-10-22T22:56:40.998Z,99912.34
2022-10-22T22:59:09.426Z,99922.16
2022-10-22T23:01:40.449Z,99929.38
2022-10-22T23:04:16.217Z,99927.75
2022-10-22T23:06:44.909Z,99917.25
2022-10-22T23:09:15.803Z,99907.41
2022-10-22T23:11:46.541Z,99903.66
2022-10-22T23:14:17.165Z,99911.38
2022-10-22T23:16:48.017Z,99902.19
2022-10-22T23:19:20.387Z,99896.09
2022-10-22T23:21:51.995Z,99895.28
2022-10-22T23:24:22.937Z,99902.97
2022-10-22T23:26:53.848Z,99913.91
2022-10-22T23:29:24.533Z,99918.31
2022-10-22T23:31:54.533Z,99918.34
2022-10-22T23:34:26.199Z,99907.41
2022-10-22T23:36:55.465Z,99901.03
2022-10-22T23:39:27.221Z,99895.59
2022-10-22T23:41:56.357Z,99897.72
2022-10-22T23:44:25.680Z,99898.69
2022-10-22T23:46:55.128Z,99896.06
2022-10-22T23:49:25.365Z,99888.88
2022-10-22T23:51:53.641Z,99870.84
2022-10-22T23:54:21.937Z,99867.44
2022-10-22T23:56:50.303Z,99865.13
2022-10-22T23:59:19.056Z,99864.63
